Time;durP1;ratioP1;P1;durP2;ratioP2;P2;SDS_P1;SDS_P2;PMS_P1;PMS_P2;Temp;Humidity;BMP_temperature;BMP_pressure;BME280_temperature;BME280_humidity;BME280_pressure;Samples;Min_cycle;Max_cycle;Signal;HPM_P1;HPM_P2
2023/04/27 00:01:47;;;;;;;;;;;;;;;21.68;30.51;97256.31;4925203;29;1064;-77
2023/04/27 00:04:13;;;;;;;;;;;;;;;21.69;30.66;97257.91;4940346;28;1043;-76
2023/04/27 00:06:39;;;;;;;;;;;;;;;21.55;30.99;97252.78;5001406;28;1031;-77
2023/04/27 00:09:04;;;;;;;;;;;;;;;21.72;30.39;97256.19;5016992;28;905;-77
2023/04/27 00:11:30;;;;;;;;;;;;;;;21.61;30.84;97248.13;4999780;28;1979;-77
2023/04/27 00:13:55;;;;;;;;;;;;;;;21.60;30.84;97249.34;5017022;28;917;-76
2023/04/27 00:16:21;;;;;;;;;;;;;;;22.05;30.33;97223.28;4999650;28;990;-77
2023/04/27 00:18:46;;;;;;;;;;;;;;;22.26;30.45;97257.69;4999177;28;1159;-77
2023/04/27 00:21:12;;;;;;;;;;;;;;;22.22;30.19;97260.66;4999719;28;955;-77
2023/04/27 00:23:37;;;;;;;;;;;;;;;22.20;30.11;97256.75;4999292;28;1163;-77
2023/04/27 00:26:03;;;;;;;;;;;;;;;21.69;31.03;97257.09;5000035;28;1138;-76
2023/04/27 00:28:28;;;;;;;;;;;;;;;21.77;30.58;97259.22;4999112;28;1120;-77
2023/04/27 00:30:57;;;;;;;;;;;;;;;21.97;30.31;97252.38;4984021;28;1965;-77
2023/04/27 00:33:26;;;;;;;;;;;;;;;21.72;30.62;97251.31;5017004;28;919;-77
2023/04/27 00:35:51;;;;;;;;;;;;;;;21.55;30.82;97253.59;5000325;28;1120;-77
2023/04/27 00:38:17;;;;;;;;;;;;;;;21.62;30.93;97252.53;4982851;28;1124;-77
2023/04/27 00:40:42;;;;;;;;;;;;;;;21.64;30.77;97260.53;4984498;28;1107;-77
2023/04/27 00:43:07;;;;;;;;;;;;;;;21.52;30.77;97263.00;4983350;28;1234;-77
2023/04/27 00:45:37;;;;;;;;;;;;;;;21.72;31.09;97259.81;4983831;28;1040;-76
2023/04/27 00:48:03;;;;;;;;;;;;;;;22.17;30.24;97266.94;4999534;28;959;-77
2023/04/27 00:50:28;;;;;;;;;;;;;;;22.05;30.24;97259.31;4999780;28;1973;-77
2023/04/27 00:52:54;;;;;;;;;;;;;;;22.18;29.74;97268.56;4983164;28;1160;-76
2023/04/27 00:55:20;;;;;;;;;;;;;;;21.73;30.46;97260.59;4999426;28;951;-77
2023/04/27 00:57:45;;;;;;;;;;;;;;;21.73;30.34;97269.88;4999135;28;941;-77
2023/04/27 01:00:12;;;;;;;;;;;;;;;21.85;30.16;97263.31;4998687;28;1007;-77
2023/04/27 01:02:37;;;;;;;;;;;;;;;21.61;30.62;97267.94;4983090;28;1439;-77
2023/04/27 01:05:03;;;;;;;;;;;;;;;21.87;29.89;97262.09;4982653;28;1303;-77
2023/04/27 01:07:28;;;;;;;;;;;;;;;21.59;30.12;97265.53;4983302;28;1018;-77
2023/04/27 01:09:54;;;;;;;;;;;;;;;21.72;30.09;97273.19;4999191;28;1126;-77
2023/04/27 01:12:19;;;;;;;;;;;;;;;21.43;30.47;97267.81;4999380;28;1922;-77
2023/04/27 01:14:46;;;;;;;;;;;;;;;22.24;29.85;97263.84;4998944;28;1163;-77
2023/04/27 01:17:13;;;;;;;;;;;;;;;22.48;29.33;97278.22;4999295;28;1216;-77
2023/04/27 01:19:39;;;;;;;;;;;;;;;22.31;29.72;97274.09;4982803;28;1202;-77
2023/04/27 01:22:06;;;;;;;;;;;;;;;22.19;29.65;97275.00;5016747;28;1044;-77
2023/04/27 01:24:32;;;;;;;;;;;;;;;21.69;30.07;97268.44;4985271;28;1241;-77
2023/04/27 01:26:57;;;;;;;;;;;;;;;21.83;29.78;97273.56;5002903;28;942;-77
2023/04/27 01:29:23;;;;;;;;;;;;;;;21.83;29.83;97268.69;4986426;28;1148;-77
2023/04/27 01:31:48;;;;;;;;;;;;;;;21.83;29.76;97277.16;4986160;28;1910;-76
2023/04/27 01:34:14;;;;;;;;;;;;;;;21.71;29.91;97266.72;5002397;28;1223;-77
2023/04/27 01:36:39;;;;;;;;;;;;;;;21.85;29.89;97266.16;4986647;28;967;-77
2023/04/27 01:39:08;;;;;;;;;;;;;;;21.74;29.79;97271.44;4986042;28;1128;-77
2023/04/27 01:41:34;;;;;;;;;;;;;;;21.67;29.84;97268.91;5020268;28;941;-76
2023/04/27 01:44:02;;;;;;;;;;;;;;;21.86;29.82;97278.28;4981540;28;1108;-77
2023/04/27 01:46:27;;;;;;;;;;;;;;;22.20;29.66;97285.88;4981659;28;1663;-76
2023/04/27 01:48:53;;;;;;;;;;;;;;;22.29;29.55;97283.06;4981134;28;1231;-77
2023/04/27 01:51:19;;;;;;;;;;;;;;;22.27;29.73;97291.22;4997859;28;1911;-77
2023/04/27 01:53:44;;;;;;;;;;;;;;;22.04;29.24;97288.91;4981002;28;1196;-76
2023/04/27 01:56:10;;;;;;;;;;;;;;;21.96;29.20;97293.28;4965147;28;1167;-77
2023/04/27 01:58:36;;;;;;;;;;;;;;;21.58;29.66;97292.28;4980871;28;942;-77
2023/04/27 02:01:01;;;;;;;;;;;;;;;21.60;29.67;97300.31;4981474;28;1134;-77
2023/04/27 02:03:27;;;;;;;;;;;;;;;21.66;29.84;97303.31;4997056;28;1279;-77
2023/04/27 02:05:53;;;;;;;;;;;;;;;21.88;29.50;97311.81;4981536;28;1124;-77
2023/04/27 02:08:18;;;;;;;;;;;;;;;21.82;29.33;97303.91;4981102;28;1163;-77
2023/04/27 02:10:44;;;;;;;;;;;;;;;21.44;30.08;97298.47;4997346;28;1918;-77
2023/04/27 02:13:10;;;;;;;;;;;;;;;22.00;29.75;97310.94;4961301;28;1365;-77
2023/04/27 02:15:35;;;;;;;;;;;;;;;22.30;28.96;97315.81;4929912;28;1145;-76
2023/04/27 02:18:04;;;;;;;;;;;;;;;22.22;29.23;97323.00;4977406;28;1012;-77
2023/04/27 02:20:30;;;;;;;;;;;;;;;22.02;29.18;97316.91;4977881;28;1123;-77
2023/04/27 02:22:56;;;;;;;;;;;;;;;21.84;29.29;97314.78;4977524;28;1149;-77
2023/04/27 02:25:24;;;;;;;;;;;;;;;21.58;29.65;97322.63;4977776;28;1179;-77
2023/04/27 02:27:50;;;;;;;;;;;;;;;21.85;29.44;97328.47;4977346;28;1024;-77
2023/04/27 02:30:15;;;;;;;;;;;;;;;21.85;29.41;97322.78;4976976;28;1907;-77
2023/04/27 02:32:41;;;;;;;;;;;;;;;21.83;29.23;97324.53;4945056;28;1307;-77
2023/04/27 02:35:07;;;;;;;;;;;;;;;21.77;29.34;97337.72;4961083;28;1013;-77
2023/04/27 02:37:33;;;;;;;;;;;;;;;22.02;29.06;97322.56;4961014;28;1001;-77
2023/04/27 02:39:58;;;;;;;;;;;;;;;22.12;28.99;97329.88;4976928;28;1040;-76
2023/04/27 02:42:24;;;;;;;;;;;;;;;22.16;28.83;97326.94;4945224;28;1193;-77
2023/04/27 02:44:49;;;;;;;;;;;;;;;22.01;29.09;97329.50;4960723;28;1248;-77
2023/04/27 02:47:15;;;;;;;;;;;;;;;22.02;28.77;97325.41;4977504;28;1140;-77
2023/04/27 02:49:41;;;;;;;;;;;;;;;21.67;29.25;97328.38;4960730;28;1202;-77
2023/04/27 02:52:06;;;;;;;;;;;;;;;21.79;29.21;97324.66;4961106;28;1964;-77
2023/04/27 02:54:32;;;;;;;;;;;;;;;21.96;28.89;97318.75;4960832;28;1112;-77
2023/04/27 02:56:58;;;;;;;;;;;;;;;21.95;28.96;97328.53;4945014;28;1619;-76
2023/04/27 02:59:23;;;;;;;;;;;;;;;21.72;29.47;97324.94;4976466;28;1253;-76
2023/04/27 03:01:49;;;;;;;;;;;;;;;21.92;29.30;97323.81;4960963;28;1010;-76
2023/04/27 03:04:15;;;;;;;;;;;;;;;22.15;28.81;97331.81;4978643;28;1234;-77
2023/04/27 03:06:40;;;;;;;;;;;;;;;22.06;29.15;97331.72;4941575;29;1311;-77
2023/04/27 03:09:06;;;;;;;;;;;;;;;22.11;29.05;97339.66;4925394;28;1118;-77
2023/04/27 03:11:31;;;;;;;;;;;;;;;21.94;29.04;97341.09;4941618;29;1899;-76
2023/04/27 03:13:57;;;;;;;;;;;;;;;21.70;29.35;97343.63;4941189;28;982;-76
2023/04/27 03:16:23;;;;;;;;;;;;;;;21.95;29.09;97342.69;4941231;29;1113;-77
2023/04/27 03:18:48;;;;;;;;;;;;;;;21.67;29.38;97339.69;4940852;29;1037;-76
2023/04/27 03:21:15;;;;;;;;;;;;;;;21.93;29.28;97343.16;4941358;29;1116;-77
2023/04/27 03:23:41;;;;;;;;;;;;;;;21.71;29.22;97346.00;4941099;28;1205;-77
2023/04/27 03:26:07;;;;;;;;;;;;;;;21.78;29.34;97337.25;4941772;29;1134;-77
2023/04/27 03:28:33;;;;;;;;;;;;;;;21.84;29.22;97343.88;4924933;28;1198;-76
2023/04/27 03:30:59;;;;;;;;;;;;;;;22.25;28.88;97350.44;4941362;28;1891;-77
2023/04/27 03:33:25;;;;;;;;;;;;;;;22.51;28.47;97339.66;4924651;29;1204;-77
2023/04/27 03:35:56;;;;;;;;;;;;;;;22.38;28.59;97343.84;4925820;28;1369;-77
2023/04/27 03:38:21;;;;;;;;;;;;;;;21.95;28.88;97348.34;4971665;28;1157;-77
2023/04/27 03:40:47;;;;;;;;;;;;;;;21.98;28.92;97358.75;4984850;28;1268;-77
2023/04/27 03:43:12;;;;;;;;;;;;;;;21.84;28.95;97358.03;5000188;28;914;-77
2023/04/27 03:45:39;;;;;;;;;;;;;;;21.75;29.30;97363.63;4951519;28;1416;-77
2023/04/27 03:48:05;;;;;;;;;;;;;;;22.05;28.64;97361.31;4999887;28;957;-77
2023/04/27 03:50:31;;;;;;;;;;;;;;;21.92;28.99;97366.28;4960049;28;1971;-77
2023/04/27 03:52:56;;;;;;;;;;;;;;;21.81;28.84;97358.97;4976099;28;958;-77
2023/04/27 03:55:22;;;;;;;;;;;;;;;22.26;28.64;97374.69;4976598;28;1132;-77
2023/04/27 03:57:47;;;;;;;;;;;;;;;22.47;28.25;97377.91;4959946;28;1541;-77
2023/04/27 04:00:13;;;;;;;;;;;;;;;22.38;28.35;97380.72;4943616;28;1291;-77
2023/04/27 04:02:40;;;;;;;;;;;;;;;22.18;28.39;97379.06;4960052;28;1065;-77
2023/04/27 04:05:07;;;;;;;;;;;;;;;21.81;28.88;97384.47;4944192;28;1137;-77
2023/04/27 04:07:33;;;;;;;;;;;;;;;21.83;28.68;97387.63;4957257;28;1152;-77
2023/04/27 04:09:59;;;;;;;;;;;;;;;21.75;28.83;97386.28;4956390;28;1106;-77
2023/04/27 04:12:24;;;;;;;;;;;;;;;21.91;28.69;97390.19;4956815;28;1999;-77
2023/04/27 04:14:50;;;;;;;;;;;;;;;21.90;28.69;97380.88;4956430;28;1121;-77
2023/04/27 04:17:15;;;;;;;;;;;;;;;21.72;28.88;97392.88;4941181;29;1256;-77
2023/04/27 04:19:41;;;;;;;;;;;;;;;21.59;28.96;97394.97;4940559;28;1312;-76
2023/04/27 04:22:06;;;;;;;;;;;;;;;21.82;28.86;97397.38;4926532;29;1130;-77
2023/04/27 04:24:32;;;;;;;;;;;;;;;21.89;28.55;97395.53;4937135;29;1505;-77
2023/04/27 04:26:58;;;;;;;;;;;;;;;21.79;28.84;97386.97;4937944;29;1188;-77
2023/04/27 04:29:24;;;;;;;;;;;;;;;21.97;28.51;97386.31;4936978;29;1006;-77
2023/04/27 04:31:50;;;;;;;;;;;;;;;22.41;28.07;97388.28;4953390;28;1973;-77
2023/04/27 04:34:15;;;;;;;;;;;;;;;22.37;27.57;97385.59;4937285;29;994;-77
2023/04/27 04:36:41;;;;;;;;;;;;;;;22.11;27.98;97390.66;4953927;28;932;-77
2023/04/27 04:39:07;;;;;;;;;;;;;;;21.82;28.28;97405.09;4970348;28;1505;-77
2023/04/27 04:41:32;;;;;;;;;;;;;;;21.63;28.66;97400.53;4976012;28;1252;-77
2023/04/27 04:43:58;;;;;;;;;;;;;;;21.79;28.53;97397.50;4975473;28;1250;-77
2023/04/27 04:46:24;;;;;;;;;;;;;;;21.95;28.29;97410.66;4989422;28;957;-77
2023/04/27 04:48:50;;;;;;;;;;;;;;;22.24;27.80;97394.19;4994414;28;1190;-77
2023/04/27 04:51:16;;;;;;;;;;;;;;;22.22;27.98;97402.34;4978909;28;1906;-77
2023/04/27 04:53:42;;;;;;;;;;;;;;;22.16;27.79;97409.88;4994426;28;1274;-76
2023/04/27 04:56:08;;;;;;;;;;;;;;;21.83;28.41;97404.63;4995177;28;975;-77
2023/04/27 04:58:34;;;;;;;;;;;;;;;21.93;28.24;97413.19;4978544;28;1007;-77
2023/04/27 05:01:00;;;;;;;;;;;;;;;21.94;28.40;97415.53;4999707;28;1003;-77
2023/04/27 05:03:26;;;;;;;;;;;;;;;21.84;28.37;97417.50;4965749;28;1062;-77
2023/04/27 05:05:51;;;;;;;;;;;;;;;22.03;27.83;97412.00;4999191;28;973;-77
2023/04/27 05:08:17;;;;;;;;;;;;;;;21.63;28.60;97418.28;4982314;28;1078;-77
2023/04/27 05:10:47;;;;;;;;;;;;;;;21.64;28.64;97408.53;4982502;28;1879;-77
2023/04/27 05:13:13;;;;;;;;;;;;;;;22.27;27.90;97404.59;4982135;28;1458;-77
2023/04/27 05:15:38;;;;;;;;;;;;;;;22.10;28.18;97406.88;4998764;28;1017;-78
2023/04/27 05:18:04;;;;;;;;;;;;;;;22.22;28.14;97408.03;4998167;28;1000;-77
2023/04/27 05:20:29;;;;;;;;;;;;;;;22.16;27.97;97409.09;4982410;28;1507;-77
2023/04/27 05:22:55;;;;;;;;;;;;;;;21.99;28.00;97405.66;4998030;28;1283;-77
2023/04/27 05:25:20;;;;;;;;;;;;;;;21.72;28.25;97401.38;4982141;28;931;-77
2023/04/27 05:27:46;;;;;;;;;;;;;;;21.60;28.52;97402.22;4998599;28;932;-77
2023/04/27 05:30:12;;;;;;;;;;;;;;;21.70;28.64;97394.59;4997773;28;993;-77
2023/04/27 05:32:38;;;;;;;;;;;;;;;21.55;28.95;97400.78;4986666;28;1985;-77
2023/04/27 05:35:04;;;;;;;;;;;;;;;22.08;28.32;97391.56;5020101;28;958;-77
2023/04/27 05:37:29;;;;;;;;;;;;;;;22.15;27.94;97391.31;4969491;28;1018;-77
2023/04/27 05:39:55;;;;;;;;;;;;;;;22.11;28.26;97396.31;5019379;28;934;-77
2023/04/27 05:42:20;;;;;;;;;;;;;;;22.53;27.54;97398.72;5002512;28;942;-77
2023/04/27 05:44:46;;;;;;;;;;;;;;;22.18;27.99;97401.72;5002032;28;1147;-76
2023/04/27 05:47:11;;;;;;;;;;;;;;;22.16;27.87;97415.56;5002533;28;1895;-77
2023/04/27 05:49:37;;;;;;;;;;;;;;;21.81;28.02;97411.97;5019486;28;1003;-77
2023/04/27 05:52:03;;;;;;;;;;;;;;;21.56;28.73;97418.56;5020077;28;1976;-77
2023/04/27 05:54:28;;;;;;;;;;;;;;;22.01;28.58;97417.31;4985707;28;1293;-77
2023/04/27 05:56:54;;;;;;;;;;;;;;;22.25;27.82;97424.13;4942918;28;963;-77
2023/04/27 05:59:20;;;;;;;;;;;;;;;22.31;27.78;97415.78;4942766;29;1064;-77
2023/04/27 06:01:46;;;;;;;;;;;;;;;22.43;27.58;97416.94;4927633;29;1017;-77
2023/04/27 06:04:11;;;;;;;;;;;;;;;22.00;28.13;97429.91;4942727;28;997;-78
2023/04/27 06:06:37;;;;;;;;;;;;;;;21.97;28.30;97442.16;4920927;29;1133;-78
2023/04/27 06:09:03;;;;;;;;;;;;;;;22.04;27.80;97433.41;4904110;29;987;-77
2023/04/27 06:11:28;;;;;;;;;;;;;;;22.14;28.22;97439.94;4920697;29;1880;-77
2023/04/27 06:13:53;;;;;;;;;;;;;;;22.11;28.38;97441.66;4920444;29;911;-77
2023/04/27 06:16:20;;;;;;;;;;;;;;;22.55;27.42;97445.22;4904557;29;1220;-77
2023/04/27 06:18:45;;;;;;;;;;;;;;;22.23;27.84;97443.63;4904147;29;985;-77
2023/04/27 06:21:11;;;;;;;;;;;;;;;21.83;28.35;97441.44;4920482;29;999;-77
2023/04/27 06:23:36;;;;;;;;;;;;;;;21.89;28.03;97447.28;4919806;29;1218;-77
2023/04/27 06:26:02;;;;;;;;;;;;;;;22.04;28.25;97447.56;4920800;29;1070;-77
2023/04/27 06:28:28;;;;;;;;;;;;;;;22.46;27.38;97452.88;4946117;28;1067;-77
2023/04/27 06:30:54;;;;;;;;;;;;;;;22.35;27.53;97451.25;4977732;28;1977;-77
2023/04/27 06:33:19;;;;;;;;;;;;;;;22.50;27.67;97457.16;4945192;28;969;-77
2023/04/27 06:35:45;;;;;;;;;;;;;;;21.90;28.13;97453.75;4929788;28;1431;-78
2023/04/27 06:38:10;;;;;;;;;;;;;;;22.06;28.04;97473.38;5007543;28;929;-77
2023/04/27 06:40:36;;;;;;;;;;;;;;;22.12;27.55;97471.56;4985386;28;938;-78
2023/04/27 06:43:02;;;;;;;;;;;;;;;21.83;28.02;97471.78;5001652;28;1032;-77
2023/04/27 06:45:27;;;;;;;;;;;;;;;21.75;28.38;97465.56;5001384;28;1014;-77
2023/04/27 06:47:53;;;;;;;;;;;;;;;22.49;27.48;97483.16;5001298;28;983;-77
2023/04/27 06:50:18;;;;;;;;;;;;;;;22.27;27.74;97486.78;5001132;28;947;-77
2023/04/27 06:52:44;;;;;;;;;;;;;;;22.35;27.25;97493.78;5000926;28;1906;-77
2023/04/27 06:55:09;;;;;;;;;;;;;;;21.75;28.24;97488.22;4984555;28;912;-77
2023/04/27 06:57:35;;;;;;;;;;;;;;;21.91;27.88;97497.81;5000612;28;941;-77
2023/04/27 07:00:01;;;;;;;;;;;;;;;21.95;27.65;97498.47;5001005;28;923;-78
2023/04/27 07:02:26;;;;;;;;;;;;;;;21.92;27.91;97502.25;4984782;28;964;-77
2023/04/27 07:04:52;;;;;;;;;;;;;;;21.78;28.14;97503.53;5018191;28;1001;-77
2023/04/27 07:07:18;;;;;;;;;;;;;;;21.79;28.39;97510.78;5000791;28;1092;-77
2023/04/27 07:09:43;;;;;;;;;;;;;;;21.81;28.37;97497.75;4956662;28;1022;-77
2023/04/27 07:12:09;;;;;;;;;;;;;;;21.62;28.66;97496.00;4957273;28;1898;-77
2023/04/27 07:14:35;;;;;;;;;;;;;;;21.93;27.93;97504.59;4940883;28;981;-77
2023/04/27 07:17:00;;;;;;;;;;;;;;;22.55;27.20;97503.97;4941535;28;991;-77
2023/04/27 07:19:26;;;;;;;;;;;;;;;22.28;27.46;97498.94;4925168;29;1009;-77
2023/04/27 07:21:51;;;;;;;;;;;;;;;21.99;27.96;97508.44;4940835;28;973;-77
2023/04/27 07:24:17;;;;;;;;;;;;;;;22.11;27.64;97503.97;4957091;28;1106;-77
2023/04/27 07:26:42;;;;;;;;;;;;;;;21.82;27.64;97515.53;4941710;28;1126;-77
2023/04/27 07:29:12;;;;;;;;;;;;;;;21.95;27.79;97507.75;4957121;28;1076;-77
2023/04/27 07:31:37;;;;;;;;;;;;;;;21.81;27.97;97511.91;4941387;29;1899;-77
2023/04/27 07:34:03;;;;;;;;;;;;;;;21.67;28.40;97520.91;4956946;28;1004;-78
2023/04/27 07:36:28;;;;;;;;;;;;;;;21.86;28.44;97521.84;4957128;28;945;-77
2023/04/27 07:38:56;;;;;;;;;;;;;;;22.33;27.27;97527.47;4940922;28;883;-77
2023/04/27 07:41:22;;;;;;;;;;;;;;;22.39;27.44;97535.38;4987500;28;1036;-77
2023/04/27 07:43:48;;;;;;;;;;;;;;;22.36;27.11;97520.06;4956392;28;996;-77
2023/04/27 07:46:14;;;;;;;;;;;;;;;22.21;27.25;97531.13;4925818;29;1022;-77
2023/04/27 07:48:39;;;;;;;;;;;;;;;21.88;27.60;97529.91;4940131;29;1011;-77
2023/04/27 07:51:04;;;;;;;;;;;;;;;21.70;27.67;97531.28;4957283;28;1880;-77
2023/04/27 07:53:30;;;;;;;;;;;;;;;22.24;27.53;97530.22;4923975;28;986;-77
2023/04/27 07:55:55;;;;;;;;;;;;;;;22.27;27.40;97532.13;4942542;29;1169;-78
2023/04/27 07:58:21;;;;;;;;;;;;;;;22.40;26.96;97525.63;4957550;29;1163;-78
2023/04/27 08:00:47;;;;;;;;;;;;;;;22.05;27.35;97536.97;4959972;28;1039;-79
2023/04/27 08:03:12;;;;;;;;;;;;;;;21.82;27.44;97541.81;4941988;29;1012;-78
2023/04/27 08:05:37;;;;;;;;;;;;;;;21.71;27.21;97543.41;4927773;28;1017;-78
2023/04/27 08:08:03;;;;;;;;;;;;;;;22.01;27.77;97534.25;4942634;29;1031;-77
2023/04/27 08:10:29;;;;;;;;;;;;;;;22.42;27.07;97540.09;4959285;28;1977;-78
2023/04/27 08:12:54;;;;;;;;;;;;;;;22.31;26.87;97535.63;4923367;29;928;-78
2023/04/27 08:15:20;;;;;;;;;;;;;;;22.11;27.04;97537.97;4962800;28;965;-77
2023/04/27 08:17:46;;;;;;;;;;;;;;;21.91;27.46;97540.28;4978035;28;1132;-78
2023/04/27 08:20:11;;;;;;;;;;;;;;;21.90;27.43;97538.72;4977632;28;1073;-78
2023/04/27 08:22:40;;;;;;;;;;;;;;;21.89;27.34;97525.81;4962000;28;1011;-78
2023/04/27 08:25:06;;;;;;;;;;;;;;;22.48;26.80;97526.91;4961023;28;1162;-78
2023/04/27 08:27:32;;;;;;;;;;;;;;;22.80;26.35;97537.84;4961965;28;1056;-78
2023/04/27 08:29:59;;;;;;;;;;;;;;;22.38;26.68;97539.44;4960903;28;1220;-78
2023/04/27 08:32:25;;;;;;;;;;;;;;;21.99;27.23;97538.81;4943957;28;1910;-77
2023/04/27 08:34:51;;;;;;;;;;;;;;;21.86;27.21;97527.50;4945534;29;1006;-78
2023/04/27 08:37:17;;;;;;;;;;;;;;;21.81;27.38;97537.41;4946664;29;1011;-78
2023/04/27 08:39:42;;;;;;;;;;;;;;;21.87;27.41;97528.31;4953732;28;1045;-78
2023/04/27 08:42:11;;;;;;;;;;;;;;;22.02;27.03;97535.84;4982362;28;979;-78
2023/04/27 08:44:40;;;;;;;;;;;;;;;21.80;27.16;97529.34;4965266;28;1043;-77
2023/04/27 08:47:06;;;;;;;;;;;;;;;22.06;26.96;97518.72;4978435;28;1627;-78
2023/04/27 08:49:31;;;;;;;;;;;;;;;22.67;26.17;97516.47;4981030;28;1067;-78
2023/04/27 08:51:57;;;;;;;;;;;;;;;22.63;25.84;97519.44;4966155;28;1907;-78
2023/04/27 08:54:22;;;;;;;;;;;;;;;22.20;26.69;97518.22;4965092;28;992;-78
2023/04/27 08:56:48;;;;;;;;;;;;;;;22.20;26.47;97509.72;4981696;28;921;-78
2023/04/27 08:59:13;;;;;;;;;;;;;;;21.75;27.03;97510.88;4965197;28;1816;-78
2023/04/27 09:01:42;;;;;;;;;;;;;;;21.92;27.06;97494.53;4965922;28;1051;-78
2023/04/27 09:04:08;;;;;;;;;;;;;;;22.00;26.68;97503.56;4996911;28;1061;-78
2023/04/27 09:06:34;;;;;;;;;;;;;;;22.18;26.56;97498.06;5006148;28;953;-79
2023/04/27 09:08:59;;;;;;;;;;;;;;;22.31;26.53;97495.94;5004896;28;1017;-78
2023/04/27 09:11:32;;;;;;;;;;;;;;;22.60;26.02;97483.53;5005072;28;1997;-78
2023/04/27 09:13:58;;;;;;;;;;;;;;;22.27;26.30;97495.28;5004298;28;888;-78
2023/04/27 09:16:25;;;;;;;;;;;;;;;21.96;26.93;97500.06;5022834;28;847;-78
2023/04/27 09:18:50;;;;;;;;;;;;;;;21.84;27.02;97501.69;5021806;28;975;-78
2023/04/27 09:21:26;;;;;;;;;;;;;;;21.92;26.84;97502.25;5005233;28;1133;-78
2023/04/27 09:23:51;;;;;;;;;;;;;;;22.02;26.76;97506.72;5003944;28;1082;-78
2023/04/27 09:26:20;;;;;;;;;;;;;;;21.91;26.86;97507.09;4981239;28;994;-78
2023/04/27 09:28:47;;;;;;;;;;;;;;;21.84;27.03;97488.31;4964083;28;1062;-78
2023/04/27 09:31:12;;;;;;;;;;;;;;;22.09;26.72;97503.63;4942368;29;1883;-78
2023/04/27 09:33:38;;;;;;;;;;;;;;;22.41;26.31;97513.03;4940457;29;859;-78
2023/04/27 09:36:04;;;;;;;;;;;;;;;22.48;26.14;97509.91;4942638;29;991;-78
2023/04/27 09:38:30;;;;;;;;;;;;;;;22.03;26.49;97502.66;4940725;29;1018;-77
2023/04/27 09:40:55;;;;;;;;;;;;;;;21.71;27.20;97498.91;4942627;29;1025;-78
2023/04/27 09:43:22;;;;;;;;;;;;;;;21.93;26.91;97504.59;4940894;29;1170;-78
2023/04/27 09:45:48;;;;;;;;;;;;;;;21.73;27.17;97493.56;4941916;29;1062;-78
2023/04/27 09:48:14;;;;;;;;;;;;;;;22.34;26.37;97494.25;4941008;29;986;-78
2023/04/27 09:50:40;;;;;;;;;;;;;;;22.46;26.18;97507.53;4926820;29;1975;-78
2023/04/27 09:53:06;;;;;;;;;;;;;;;22.27;26.27;97503.78;4941733;29;938;-78
2023/04/27 09:55:36;;;;;;;;;;;;;;;21.87;26.69;97495.13;4941891;29;1099;-78
2023/04/27 09:58:14;;;;;;;;;;;;;;;21.97;26.93;97481.81;4960481;28;1162;-78
2023/04/27 10:00:58;;;;;;;;;;;;;;;22.00;26.54;97497.88;4980087;28;1052;-77
2023/04/27 10:03:26;;;;;;;;;;;;;;;21.59;27.44;97491.22;5022433;28;960;-78
2023/04/27 10:06:01;;;;;;;;;;;;;;;22.27;26.48;97489.59;5041777;28;926;-77
2023/04/27 10:08:27;;;;;;;;;;;;;;;22.32;26.47;97491.84;5040089;28;917;-78
2023/04/27 10:10:53;;;;;;;;;;;;;;;22.04;26.81;97490.84;5024201;28;1972;-79
2023/04/27 10:13:22;;;;;;;;;;;;;;;21.91;26.74;97506.31;5005881;28;892;-78
2023/04/27 10:15:47;;;;;;;;;;;;;;;21.80;27.14;97513.13;5010258;28;1981;-78
2023/04/27 10:18:13;;;;;;;;;;;;;;;21.65;27.30;97512.03;5038677;28;983;-77
2023/04/27 10:20:39;;;;;;;;;;;;;;;21.78;27.28;97518.47;5041564;28;1046;-80
2023/04/27 10:23:05;;;;;;;;;;;;;;;21.88;27.05;97512.91;5042197;28;1045;-79
2023/04/27 10:25:37;;;;;;;;;;;;;;;21.83;27.03;97528.44;5042365;28;974;-79
2023/04/27 10:28:03;;;;;;;;;;;;;;;21.69;27.19;97529.72;5042755;28;899;-79
2023/04/27 10:30:38;;;;;;;;;;;;;;;21.76;27.21;97526.66;5041901;28;915;-79
2023/04/27 10:33:04;;;;;;;;;;;;;;;21.64;27.24;97538.78;5042145;28;976;-79
2023/04/27 10:35:32;;;;;;;;;;;;;;;21.79;27.24;97537.03;5009621;28;1226;-78
2023/04/27 10:38:08;;;;;;;;;;;;;;;21.78;27.25;97543.97;5043452;28;931;-79
2023/04/27 10:40:34;;;;;;;;;;;;;;;21.96;26.76;97548.22;5042713;28;951;-79
2023/04/27 10:43:07;;;;;;;;;;;;;;;22.06;26.49;97536.50;5041516;28;840;-79
2023/04/27 10:45:32;;;;;;;;;;;;;;;21.88;26.67;97550.50;5042338;28;939;-78
2023/04/27 10:47:58;;;;;;;;;;;;;;;21.43;27.48;97545.16;5041422;28;908;-79
2023/04/27 10:50:24;;;;;;;;;;;;;;;21.40;27.72;97541.22;5042463;28;931;-79
2023/04/27 10:52:50;;;;;;;;;;;;;;;22.01;26.87;97547.63;5025308;28;1948;-79
2023/04/27 10:55:16;;;;;;;;;;;;;;;22.28;26.40;97547.91;5025553;28;979;-78
2023/04/27 10:57:44;;;;;;;;;;;;;;;22.35;26.10;97546.84;5040684;28;1103;-79
2023/04/27 11:00:13;;;;;;;;;;;;;;;22.27;26.18;97557.63;5023761;28;1154;-79
2023/04/27 11:02:38;;;;;;;;;;;;;;;21.78;26.78;97546.00;5025276;28;1132;-78
2023/04/27 11:05:14;;;;;;;;;;;;;;;21.69;26.67;97541.03;5040390;28;1086;-79
2023/04/27 11:07:39;;;;;;;;;;;;;;;21.77;26.76;97550.09;5024305;28;907;-78
2023/04/27 11:10:06;;;;;;;;;;;;;;;21.99;26.63;97547.31;5000678;28;1126;-79
2023/04/27 11:12:31;;;;;;;;;;;;;;;22.06;26.47;97547.81;5001402;28;1991;-79
2023/04/27 11:14:57;;;;;;;;;;;;;;;21.92;26.81;97547.56;5000249;28;979;-78
2023/04/27 11:17:29;;;;;;;;;;;;;;;22.02;26.34;97547.19;5001658;28;1008;-79
2023/04/27 11:19:55;;;;;;;;;;;;;;;22.03;26.47;97553.63;5019300;28;941;-79
2023/04/27 11:22:20;;;;;;;;;;;;;;;21.56;26.86;97549.56;5004274;28;992;-79
2023/04/27 11:24:47;;;;;;;;;;;;;;;21.34;27.25;97548.69;4986615;28;1246;-79
2023/04/27 11:27:13;;;;;;;;;;;;;;;21.78;26.76;97555.28;4988761;28;1007;-79
2023/04/27 11:29:38;;;;;;;;;;;;;;;22.15;26.30;97554.88;4984121;28;1070;-78
2023/04/27 11:32:04;;;;;;;;;;;;;;;22.19;26.14;97545.00;4982719;28;1910;-79
2023/04/27 11:34:36;;;;;;;;;;;;;;;22.02;26.55;97541.53;4980357;28;973;-79
2023/04/27 11:37:02;;;;;;;;;;;;;;;21.70;26.82;97544.66;4949180;28;1127;-78
2023/04/27 11:39:28;;;;;;;;;;;;;;;21.77;26.52;97550.88;4980780;28;966;-79
2023/04/27 11:41:54;;;;;;;;;;;;;;;21.66;27.10;97552.47;4965322;28;1051;-80
2023/04/27 11:44:23;;;;;;;;;;;;;;;21.72;26.88;97557.13;4963983;28;1336;-78
2023/04/27 11:46:49;;;;;;;;;;;;;;;22.10;26.40;97550.53;4965764;28;1027;-79
2023/04/27 11:49:14;;;;;;;;;;;;;;;22.29;26.01;97557.97;4980369;28;961;-79
2023/04/27 11:51:40;;;;;;;;;;;;;;;21.92;26.43;97558.91;5013652;28;1898;-78
2023/04/27 11:54:06;;;;;;;;;;;;;;;21.87;26.49;97579.31;4987487;28;967;-79
2023/04/27 11:56:35;;;;;;;;;;;;;;;21.65;26.74;97568.69;5004630;28;992;-79
2023/04/27 11:59:00;;;;;;;;;;;;;;;21.56;26.87;97579.91;4986389;28;1077;-79
2023/04/27 12:01:26;;;;;;;;;;;;;;;21.41;27.39;97575.97;5020789;28;1012;-79
2023/04/27 12:03:51;;;;;;;;;;;;;;;21.78;26.84;97577.94;4986837;28;992;-78
2023/04/27 12:06:22;;;;;;;;;;;;;;;22.31;25.90;97575.31;5004298;28;994;-78
2023/04/27 12:08:48;;;;;;;;;;;;;;;22.22;26.15;97572.38;4985784;28;1590;-79
2023/04/27 12:11:13;;;;;;;;;;;;;;;21.80;26.32;97578.28;5004249;28;1979;-79
2023/04/27 12:13:39;;;;;;;;;;;;;;;21.77;26.55;97575.59;5001487;28;1035;-79
2023/04/27 12:16:05;;;;;;;;;;;;;;;21.75;26.57;97573.19;5021103;28;939;-79
2023/04/27 12:18:31;;;;;;;;;;;;;;;21.42;27.21;97583.22;5018255;28;966;-79
2023/04/27 12:20:56;;;;;;;;;;;;;;;22.19;26.09;97581.03;5043546;28;844;-78
2023/04/27 12:23:22;;;;;;;;;;;;;;;22.30;25.82;97584.28;5039342;28;1041;-79
2023/04/27 12:25:48;;;;;;;;;;;;;;;22.06;26.03;97592.38;5040999;28;921;-78
2023/04/27 12:28:17;;;;;;;;;;;;;;;21.79;26.65;97596.53;5022839;28;905;-79
2023/04/27 12:30:43;;;;;;;;;;;;;;;21.84;26.55;97586.66;5042270;28;1875;-79
2023/04/27 12:33:10;;;;;;;;;;;;;;;21.89;26.33;97588.13;5041047;28;938;-79
2023/04/27 12:35:36;;;;;;;;;;;;;;;21.80;26.63;97581.09;5007628;28;1115;-79
2023/04/27 12:38:02;;;;;;;;;;;;;;;22.12;26.06;97596.22;5023507;28;1108;-79
2023/04/27 12:40:28;;;;;;;;;;;;;;;22.47;25.68;97604.72;5024011;28;1240;-79
2023/04/27 12:42:53;;;;;;;;;;;;;;;22.12;26.19;97607.56;5040895;28;909;-79
2023/04/27 12:45:19;;;;;;;;;;;;;;;21.72;26.77;97602.44;5040557;28;983;-79
2023/04/27 12:47:44;;;;;;;;;;;;;;;21.83;26.64;97608.53;5039024;28;1000;-79
2023/04/27 12:50:11;;;;;;;;;;;;;;;21.47;26.96;97602.47;5021566;28;938;-78
2023/04/27 12:52:37;;;;;;;;;;;;;;;22.13;26.48;97608.38;5039485;28;1955;-79
2023/04/27 12:55:03;;;;;;;;;;;;;;;22.41;26.01;97607.34;4989749;28;1076;-79